Kirksville, MO

5:28 PM CST on February 10, 2016 (GMT -0600)
Kirksville Regional | | Change Station
CLOSE
Current Station
Airport
Location: Kirksville,
Elevation: 965 ft
Nearby Weather Stations

Elev 965 ft 40.10 °N, 92.55 °W | Updated 26 minutes ago

Overcast
Overcast
21 °F
Feels Like 11 °F
N
9
Wind Variable Wind from East

Today
High -- | Low -- °F
--% Chance of Precip.
Yesterday
High -- | Low -- °F
Precip. -- in
Pressure 30.06 in
Visibility 10.0 miles
Clouds Few 900 ft
Mostly Cloudy 4300 ft
Overcast 5500 ft
Windchill 11 °F
Dew Point 16 °F
Humidity 81%
Rainfall 0.09 in
Snow Depth Not available.
7:09 AM 5:39 PM
Waxing Crescent, 8% visible
SPECI KIRK 102302Z AUTO 09008KT 10SM FEW009 BKN043 OVC055 M06/M09 A3006 RMK AO2 T10611089
Pressure 30.06 in
Visibility 10.0 miles
Clouds Few 900 ft
Mostly Cloudy 4300 ft
Overcast 5500 ft
Windchill 11 °F
Dew Point 16 °F
Humidity 81%
Rainfall 0.09 in
Snow Depth Not available.
7:09 AM 5:39 PM
Waxing Crescent, 8% visible
SPECI KIRK 102302Z AUTO 09008KT 10SM FEW009 BKN043 OVC055 M06/M09 A3006 RMK AO2 T10611089

10-Day Weather Forecast

Almanac

Astronomy

Feb. 10, 2016 Rise Set
Actual Time
Civil Twilight
Nautical Twilight
Astronomical Twilight
Moon
Length of Visible Light
Length of Day
Tomorrow will be .
, % of the Moon is Illuminated

Today's Extremes

State Highs State Lows

Community

WunderPhotos

Upload Photos

1,891,935 photos uploaded!

WunderBlog® & News

Nearby

Air Quality

  Air Quality AQ Index Pollutant
Not available.

Snow Depth

Station Depth Elevation

Earthquake Activity

City Distance Mag. Time & Date
Minimum magnitude displayed is 2.5.

Coastal Water Temperatures

Place Temperature

Stations

Nearby Weather Stations

Station Location Temp. Windchill Dew Point Humidity Wind Precip. Elev Updated Type
                   

Watches & Warnings

There are currently no watches in effect.